sensor_id;sensor_type;location;lat;lon;timestamp;P1;durP1;ratioP1;P2;durP2;ratioP2
12334;SDS011;6233;51.560;9.986;2022-12-07T00:02:21;12.60;;;9.60;;
12334;SDS011;6233;51.560;9.986;2022-12-07T00:05:25;16.60;;;11.07;;
12334;SDS011;6233;51.560;9.986;2022-12-07T00:08:26;17.07;;;12.17;;
12334;SDS011;6233;51.560;9.986;2022-12-07T00:11:28;17.03;;;11.33;;
12334;SDS011;6233;51.560;9.986;2022-12-07T00:14:30;16.07;;;11.10;;
12334;SDS011;6233;51.560;9.986;2022-12-07T00:17:32;17.47;;;11.57;;
12334;SDS011;6233;51.560;9.986;2022-12-07T00:20:34;17.60;;;11.27;;
12334;SDS011;6233;51.560;9.986;2022-12-07T00:23:36;18.40;;;11.87;;
12334;SDS011;6233;51.560;9.986;2022-12-07T00:26:38;18.57;;;12.17;;
12334;SDS011;6233;51.560;9.986;2022-12-07T00:29:41;17.83;;;11.70;;
12334;SDS011;6233;51.560;9.986;2022-12-07T00:32:43;16.07;;;11.87;;
12334;SDS011;6233;51.560;9.986;2022-12-07T00:35:44;17.87;;;11.60;;
12334;SDS011;6233;51.560;9.986;2022-12-07T00:38:46;17.40;;;11.73;;
12334;SDS011;6233;51.560;9.986;2022-12-07T00:45:16;14.73;;;10.97;;
12334;SDS011;6233;51.560;9.986;2022-12-07T00:48:17;17.00;;;11.23;;
12334;SDS011;6233;51.560;9.986;2022-12-07T00:51:20;17.10;;;11.50;;
12334;SDS011;6233;51.560;9.986;2022-12-07T00:54:22;16.30;;;11.43;;
12334;SDS011;6233;51.560;9.986;2022-12-07T00:57:24;15.43;;;10.93;;
12334;SDS011;6233;51.560;9.986;2022-12-07T01:00:26;15.63;;;10.67;;
12334;SDS011;6233;51.560;9.986;2022-12-07T01:03:28;13.90;;;10.07;;
12334;SDS011;6233;51.560;9.986;2022-12-07T01:06:30;14.07;;;10.30;;
12334;SDS011;6233;51.560;9.986;2022-12-07T01:09:32;14.87;;;10.33;;
12334;SDS011;6233;51.560;9.986;2022-12-07T01:12:34;17.97;;;11.00;;
12334;SDS011;6233;51.560;9.986;2022-12-07T01:15:38;14.37;;;10.33;;
12334;SDS011;6233;51.560;9.986;2022-12-07T01:18:45;15.10;;;11.00;;
12334;SDS011;6233;51.560;9.986;2022-12-07T01:21:52;14.17;;;9.43;;
12334;SDS011;6233;51.560;9.986;2022-12-07T01:24:53;14.53;;;10.27;;
12334;SDS011;6233;51.560;9.986;2022-12-07T01:27:55;13.57;;;10.67;;
12334;SDS011;6233;51.560;9.986;2022-12-07T01:31:01;12.53;;;9.60;;
12334;SDS011;6233;51.560;9.986;2022-12-07T01:34:05;15.50;;;10.77;;
12334;SDS011;6233;51.560;9.986;2022-12-07T01:37:07;14.67;;;10.40;;
12334;SDS011;6233;51.560;9.986;2022-12-07T01:40:09;16.07;;;11.43;;
12334;SDS011;6233;51.560;9.986;2022-12-07T01:43:16;15.07;;;11.50;;
12334;SDS011;6233;51.560;9.986;2022-12-07T01:46:19;17.50;;;11.60;;
12334;SDS011;6233;51.560;9.986;2022-12-07T01:49:29;17.10;;;11.67;;
12334;SDS011;6233;51.560;9.986;2022-12-07T01:52:36;14.20;;;10.60;;
12334;SDS011;6233;51.560;9.986;2022-12-07T01:55:41;15.00;;;11.17;;
12334;SDS011;6233;51.560;9.986;2022-12-07T01:58:45;19.23;;;11.37;;
12334;SDS011;6233;51.560;9.986;2022-12-07T02:01:47;14.10;;;10.67;;
12334;SDS011;6233;51.560;9.986;2022-12-07T02:04:49;13.37;;;10.27;;
12334;SDS011;6233;51.560;9.986;2022-12-07T02:07:54;14.90;;;10.87;;
12334;SDS011;6233;51.560;9.986;2022-12-07T02:10:57;15.07;;;10.93;;
12334;SDS011;6233;51.560;9.986;2022-12-07T02:14:00;15.40;;;10.70;;
12334;SDS011;6233;51.560;9.986;2022-12-07T02:17:07;15.70;;;10.93;;
12334;SDS011;6233;51.560;9.986;2022-12-07T02:21:19;16.37;;;10.93;;
12334;SDS011;6233;51.560;9.986;2022-12-07T02:24:24;14.13;;;10.47;;
12334;SDS011;6233;51.560;9.986;2022-12-07T02:27:40;14.53;;;10.33;;
12334;SDS011;6233;51.560;9.986;2022-12-07T02:31:08;14.77;;;11.03;;
12334;SDS011;6233;51.560;9.986;2022-12-07T02:34:18;15.40;;;11.23;;
12334;SDS011;6233;51.560;9.986;2022-12-07T02:37:25;16.03;;;11.20;;
12334;SDS011;6233;51.560;9.986;2022-12-07T02:40:43;16.57;;;11.10;;
12334;SDS011;6233;51.560;9.986;2022-12-07T02:43:59;14.27;;;10.37;;
12334;SDS011;6233;51.560;9.986;2022-12-07T02:47:05;13.77;;;10.50;;
12334;SDS011;6233;51.560;9.986;2022-12-07T02:50:10;14.53;;;10.53;;
12334;SDS011;6233;51.560;9.986;2022-12-07T02:53:29;14.47;;;10.10;;
12334;SDS011;6233;51.560;9.986;2022-12-07T03:03:11;15.20;;;10.97;;
12334;SDS011;6233;51.560;9.986;2022-12-07T03:09:28;21.03;;;11.40;;
12334;SDS011;6233;51.560;9.986;2022-12-07T03:15:49;18.07;;;11.17;;
12334;SDS011;6233;51.560;9.986;2022-12-07T03:19:16;23.07;;;11.53;;
12334;SDS011;6233;51.560;9.986;2022-12-07T03:22:21;16.40;;;11.57;;
12334;SDS011;6233;51.560;9.986;2022-12-07T03:25:24;18.20;;;12.10;;
12334;SDS011;6233;51.560;9.986;2022-12-07T03:28:29;16.23;;;11.67;;
12334;SDS011;6233;51.560;9.986;2022-12-07T03:31:37;16.67;;;11.80;;
12334;SDS011;6233;51.560;9.986;2022-12-07T03:34:52;29.97;;;14.30;;
12334;SDS011;6233;51.560;9.986;2022-12-07T03:44:45;18.07;;;12.73;;
12334;SDS011;6233;51.560;9.986;2022-12-07T03:47:49;30.83;;;15.03;;
12334;SDS011;6233;51.560;9.986;2022-12-07T03:54:07;87.13;;;20.53;;
12334;SDS011;6233;51.560;9.986;2022-12-07T03:57:22;49.37;;;15.93;;
12334;SDS011;6233;51.560;9.986;2022-12-07T04:00:26;75.10;;;17.83;;
12334;SDS011;6233;51.560;9.986;2022-12-07T04:03:28;54.23;;;15.47;;
12334;SDS011;6233;51.560;9.986;2022-12-07T04:06:29;85.37;;;18.90;;
12334;SDS011;6233;51.560;9.986;2022-12-07T04:09:31;69.67;;;18.80;;
12334;SDS011;6233;51.560;9.986;2022-12-07T04:12:33;32.70;;;14.63;;
12334;SDS011;6233;51.560;9.986;2022-12-07T04:15:35;22.33;;;13.90;;
12334;SDS011;6233;51.560;9.986;2022-12-07T04:18:36;24.67;;;14.00;;
12334;SDS011;6233;51.560;9.986;2022-12-07T04:21:38;33.10;;;16.50;;
12334;SDS011;6233;51.560;9.986;2022-12-07T04:24:40;33.97;;;16.13;;
12334;SDS011;6233;51.560;9.986;2022-12-07T04:27:41;26.60;;;14.83;;
12334;SDS011;6233;51.560;9.986;2022-12-07T04:30:43;23.17;;;16.03;;
12334;SDS011;6233;51.560;9.986;2022-12-07T04:33:46;25.40;;;15.40;;
12334;SDS011;6233;51.560;9.986;2022-12-07T04:36:48;23.33;;;15.60;;
12334;SDS011;6233;51.560;9.986;2022-12-07T04:39:50;25.00;;;15.63;;
12334;SDS011;6233;51.560;9.986;2022-12-07T04:42:52;24.17;;;16.00;;
12334;SDS011;6233;51.560;9.986;2022-12-07T04:45:54;27.73;;;16.43;;
12334;SDS011;6233;51.560;9.986;2022-12-07T04:52:10;26.63;;;16.37;;
12334;SDS011;6233;51.560;9.986;2022-12-07T04:55:11;23.70;;;15.07;;
12334;SDS011;6233;51.560;9.986;2022-12-07T04:58:13;25.87;;;17.50;;
12334;SDS011;6233;51.560;9.986;2022-12-07T05:01:15;23.37;;;15.93;;
12334;SDS011;6233;51.560;9.986;2022-12-07T05:04:18;26.73;;;16.03;;
12334;SDS011;6233;51.560;9.986;2022-12-07T05:07:19;25.37;;;16.30;;
12334;SDS011;6233;51.560;9.986;2022-12-07T05:10:21;25.73;;;17.43;;
12334;SDS011;6233;51.560;9.986;2022-12-07T05:13:23;27.53;;;16.27;;
12334;SDS011;6233;51.560;9.986;2022-12-07T05:16:25;26.30;;;16.47;;
12334;SDS011;6233;51.560;9.986;2022-12-07T05:19:26;24.50;;;15.57;;
12334;SDS011;6233;51.560;9.986;2022-12-07T05:22:28;23.73;;;15.13;;
12334;SDS011;6233;51.560;9.986;2022-12-07T05:25:30;25.00;;;15.43;;
12334;SDS011;6233;51.560;9.986;2022-12-07T05:28:32;23.47;;;15.50;;
12334;SDS011;6233;51.560;9.986;2022-12-07T05:31:33;25.27;;;15.37;;
12334;SDS011;6233;51.560;9.986;2022-12-07T05:34:35;27.53;;;17.10;;
12334;SDS011;6233;51.560;9.986;2022-12-07T05:37:37;21.63;;;14.73;;
12334;SDS011;6233;51.560;9.986;2022-12-07T05:40:39;23.23;;;14.33;;
12334;SDS011;6233;51.560;9.986;2022-12-07T05:43:40;25.40;;;14.40;;
12334;SDS011;6233;51.560;9.986;2022-12-07T05:46:42;19.90;;;14.17;;
12334;SDS011;6233;51.560;9.986;2022-12-07T05:49:44;24.23;;;14.23;;
12334;SDS011;6233;51.560;9.986;2022-12-07T05:52:46;22.77;;;13.60;;
12334;SDS011;6233;51.560;9.986;2022-12-07T05:55:47;23.47;;;15.20;;
12334;SDS011;6233;51.560;9.986;2022-12-07T05:58:49;21.10;;;14.20;;
12334;SDS011;6233;51.560;9.986;2022-12-07T06:02:10;19.03;;;12.83;;
12334;SDS011;6233;51.560;9.986;2022-12-07T06:05:13;21.53;;;14.13;;
12334;SDS011;6233;51.560;9.986;2022-12-07T06:08:15;18.30;;;13.07;;
12334;SDS011;6233;51.560;9.986;2022-12-07T06:11:17;18.60;;;12.47;;
12334;SDS011;6233;51.560;9.986;2022-12-07T06:14:38;17.93;;;11.90;;
12334;SDS011;6233;51.560;9.986;2022-12-07T06:17:40;17.97;;;12.30;;
12334;SDS011;6233;51.560;9.986;2022-12-07T06:20:41;19.77;;;12.40;;
12334;SDS011;6233;51.560;9.986;2022-12-07T06:23:43;17.53;;;11.50;;
12334;SDS011;6233;51.560;9.986;2022-12-07T06:26:45;15.67;;;10.93;;
12334;SDS011;6233;51.560;9.986;2022-12-07T06:29:47;21.73;;;12.07;;
12334;SDS011;6233;51.560;9.986;2022-12-07T06:32:48;16.90;;;11.20;;
12334;SDS011;6233;51.560;9.986;2022-12-07T06:35:50;16.67;;;10.83;;
12334;SDS011;6233;51.560;9.986;2022-12-07T06:38:52;15.27;;;10.40;;
12334;SDS011;6233;51.560;9.986;2022-12-07T06:41:54;16.77;;;10.43;;
12334;SDS011;6233;51.560;9.986;2022-12-07T06:44:56;13.83;;;9.90;;
12334;SDS011;6233;51.560;9.986;2022-12-07T06:48:04;26.67;;;15.60;;
12334;SDS011;6233;51.560;9.986;2022-12-07T06:51:06;16.00;;;10.43;;
12334;SDS011;6233;51.560;9.986;2022-12-07T06:54:08;16.90;;;10.87;;
12334;SDS011;6233;51.560;9.986;2022-12-07T06:57:13;15.37;;;9.90;;
12334;SDS011;6233;51.560;9.986;2022-12-07T07:00:15;18.00;;;9.83;;
12334;SDS011;6233;51.560;9.986;2022-12-07T07:03:22;14.40;;;9.73;;
12334;SDS011;6233;51.560;9.986;2022-12-07T07:06:25;17.47;;;9.47;;
12334;SDS011;6233;51.560;9.986;2022-12-07T07:09:27;14.23;;;9.03;;
12334;SDS011;6233;51.560;9.986;2022-12-07T07:12:28;15.20;;;8.93;;
12334;SDS011;6233;51.560;9.986;2022-12-07T07:15:30;16.23;;;9.43;;
12334;SDS011;6233;51.560;9.986;2022-12-07T07:18:32;16.83;;;9.30;;
12334;SDS011;6233;51.560;9.986;2022-12-07T07:21:34;13.80;;;8.77;;
12334;SDS011;6233;51.560;9.986;2022-12-07T07:24:37;14.27;;;9.17;;
12334;SDS011;6233;51.560;9.986;2022-12-07T07:27:38;18.60;;;9.33;;
12334;SDS011;6233;51.560;9.986;2022-12-07T07:30:41;13.23;;;9.40;;
12334;SDS011;6233;51.560;9.986;2022-12-07T07:33:44;14.13;;;8.87;;
12334;SDS011;6233;51.560;9.986;2022-12-07T07:36:47;13.50;;;8.83;;
12334;SDS011;6233;51.560;9.986;2022-12-07T07:39:49;11.13;;;8.27;;
12334;SDS011;6233;51.560;9.986;2022-12-07T07:42:51;14.87;;;8.80;;
12334;SDS011;6233;51.560;9.986;2022-12-07T07:45:54;13.17;;;8.10;;
12334;SDS011;6233;51.560;9.986;2022-12-07T07:48:56;12.00;;;8.30;;
12334;SDS011;6233;51.560;9.986;2022-12-07T07:51:57;11.00;;;8.20;;
12334;SDS011;6233;51.560;9.986;2022-12-07T07:54:59;11.93;;;7.80;;
12334;SDS011;6233;51.560;9.986;2022-12-07T07:58:11;13.07;;;8.40;;
12334;SDS011;6233;51.560;9.986;2022-12-07T08:01:13;12.37;;;8.13;;
12334;SDS011;6233;51.560;9.986;2022-12-07T08:04:16;14.60;;;8.23;;
12334;SDS011;6233;51.560;9.986;2022-12-07T08:07:19;14.07;;;8.47;;
12334;SDS011;6233;51.560;9.986;2022-12-07T08:10:21;12.87;;;8.70;;
12334;SDS011;6233;51.560;9.986;2022-12-07T08:13:23;14.97;;;9.10;;
12334;SDS011;6233;51.560;9.986;2022-12-07T08:16:31;12.80;;;8.03;;
12334;SDS011;6233;51.560;9.986;2022-12-07T08:19:32;13.10;;;9.10;;
12334;SDS011;6233;51.560;9.986;2022-12-07T08:22:34;15.33;;;8.67;;
12334;SDS011;6233;51.560;9.986;2022-12-07T08:25:36;12.93;;;8.60;;
12334;SDS011;6233;51.560;9.986;2022-12-07T08:28:39;16.97;;;7.93;;
12334;SDS011;6233;51.560;9.986;2022-12-07T08:31:41;11.67;;;8.33;;
12334;SDS011;6233;51.560;9.986;2022-12-07T08:34:43;13.77;;;8.20;;
12334;SDS011;6233;51.560;9.986;2022-12-07T08:37:45;13.23;;;8.63;;
12334;SDS011;6233;51.560;9.986;2022-12-07T08:40:53;13.67;;;7.53;;
12334;SDS011;6233;51.560;9.986;2022-12-07T08:43:56;14.10;;;7.80;;
12334;SDS011;6233;51.560;9.986;2022-12-07T08:46:58;11.90;;;7.50;;
12334;SDS011;6233;51.560;9.986;2022-12-07T08:50:04;10.47;;;7.70;;
12334;SDS011;6233;51.560;9.986;2022-12-07T08:53:07;11.30;;;7.87;;
12334;SDS011;6233;51.560;9.986;2022-12-07T08:56:09;9.13;;;7.13;;
12334;SDS011;6233;51.560;9.986;2022-12-07T08:59:12;13.93;;;8.10;;
12334;SDS011;6233;51.560;9.986;2022-12-07T09:02:16;11.63;;;7.60;;
12334;SDS011;6233;51.560;9.986;2022-12-07T09:05:18;12.63;;;6.73;;
12334;SDS011;6233;51.560;9.986;2022-12-07T09:08:21;8.27;;;6.20;;
12334;SDS011;6233;51.560;9.986;2022-12-07T09:11:24;12.50;;;6.83;;
12334;SDS011;6233;51.560;9.986;2022-12-07T09:14:29;8.40;;;6.57;;
12334;SDS011;6233;51.560;9.986;2022-12-07T09:17:34;11.30;;;6.60;;
12334;SDS011;6233;51.560;9.986;2022-12-07T09:20:36;12.17;;;6.93;;
12334;SDS011;6233;51.560;9.986;2022-12-07T09:23:38;10.57;;;7.13;;
12334;SDS011;6233;51.560;9.986;2022-12-07T09:26:40;11.97;;;7.07;;
12334;SDS011;6233;51.560;9.986;2022-12-07T09:29:41;13.83;;;7.77;;
12334;SDS011;6233;51.560;9.986;2022-12-07T09:32:43;14.17;;;7.57;;
12334;SDS011;6233;51.560;9.986;2022-12-07T09:35:46;14.27;;;7.30;;
12334;SDS011;6233;51.560;9.986;2022-12-07T09:38:49;10.50;;;7.20;;
12334;SDS011;6233;51.560;9.986;2022-12-07T09:41:50;13.90;;;7.93;;
12334;SDS011;6233;51.560;9.986;2022-12-07T09:44:54;13.87;;;8.00;;
12334;SDS011;6233;51.560;9.986;2022-12-07T09:47:56;8.97;;;6.60;;
12334;SDS011;6233;51.560;9.986;2022-12-07T09:51:00;12.87;;;6.67;;
12334;SDS011;6233;51.560;9.986;2022-12-07T09:54:02;11.93;;;6.97;;
12334;SDS011;6233;51.560;9.986;2022-12-07T09:57:07;11.53;;;7.30;;
12334;SDS011;6233;51.560;9.986;2022-12-07T10:00:14;12.80;;;7.00;;
12334;SDS011;6233;51.560;9.986;2022-12-07T10:03:18;11.57;;;7.07;;
12334;SDS011;6233;51.560;9.986;2022-12-07T10:06:20;12.53;;;7.20;;
12334;SDS011;6233;51.560;9.986;2022-12-07T10:09:22;10.40;;;6.90;;
12334;SDS011;6233;51.560;9.986;2022-12-07T10:12:26;10.47;;;7.23;;
12334;SDS011;6233;51.560;9.986;2022-12-07T10:18:45;10.03;;;6.60;;
12334;SDS011;6233;51.560;9.986;2022-12-07T10:25:19;8.57;;;6.43;;
12334;SDS011;6233;51.560;9.986;2022-12-07T10:28:22;10.53;;;7.13;;
12334;SDS011;6233;51.560;9.986;2022-12-07T10:31:24;9.13;;;6.50;;
12334;SDS011;6233;51.560;9.986;2022-12-07T10:34:32;9.30;;;5.83;;
12334;SDS011;6233;51.560;9.986;2022-12-07T10:37:42;9.57;;;6.23;;
12334;SDS011;6233;51.560;9.986;2022-12-07T10:40:46;9.77;;;6.03;;
12334;SDS011;6233;51.560;9.986;2022-12-07T10:43:49;9.63;;;5.60;;
12334;SDS011;6233;51.560;9.986;2022-12-07T10:54:10;9.47;;;5.77;;
12334;SDS011;6233;51.560;9.986;2022-12-07T11:00:58;7.73;;;5.77;;
12334;SDS011;6233;51.560;9.986;2022-12-07T11:04:08;8.33;;;5.93;;
12334;SDS011;6233;51.560;9.986;2022-12-07T11:11:51;9.13;;;5.83;;
12334;SDS011;6233;51.560;9.986;2022-12-07T11:21:32;11.70;;;5.80;;
12334;SDS011;6233;51.560;9.986;2022-12-07T11:41:52;7.47;;;5.07;;
12334;SDS011;6233;51.560;9.986;2022-12-07T11:45:15;10.17;;;4.73;;
12334;SDS011;6233;51.560;9.986;2022-12-07T11:48:25;8.27;;;4.67;;
12334;SDS011;6233;51.560;9.986;2022-12-07T11:51:36;6.27;;;4.87;;
12334;SDS011;6233;51.560;9.986;2022-12-07T11:54:42;5.93;;;4.87;;
12334;SDS011;6233;51.560;9.986;2022-12-07T11:57:49;7.63;;;4.53;;
12334;SDS011;6233;51.560;9.986;2022-12-07T12:08:33;5.33;;;4.53;;
12334;SDS011;6233;51.560;9.986;2022-12-07T12:26:31;7.83;;;5.00;;
12334;SDS011;6233;51.560;9.986;2022-12-07T12:29:37;6.83;;;4.67;;
12334;SDS011;6233;51.560;9.986;2022-12-07T12:32:42;5.97;;;4.20;;
12334;SDS011;6233;51.560;9.986;2022-12-07T12:35:44;8.40;;;5.27;;
12334;SDS011;6233;51.560;9.986;2022-12-07T12:38:50;10.97;;;6.17;;
12334;SDS011;6233;51.560;9.986;2022-12-07T12:41:53;9.60;;;5.07;;
12334;SDS011;6233;51.560;9.986;2022-12-07T12:45:04;7.83;;;4.50;;
12334;SDS011;6233;51.560;9.986;2022-12-07T12:48:27;5.10;;;3.70;;
12334;SDS011;6233;51.560;9.986;2022-12-07T12:51:37;7.23;;;4.13;;
12334;SDS011;6233;51.560;9.986;2022-12-07T12:54:57;5.03;;;4.13;;
12334;SDS011;6233;51.560;9.986;2022-12-07T13:01:35;5.33;;;4.17;;
12334;SDS011;6233;51.560;9.986;2022-12-07T13:11:31;8.33;;;4.43;;
12334;SDS011;6233;51.560;9.986;2022-12-07T13:14:43;8.87;;;5.10;;
12334;SDS011;6233;51.560;9.986;2022-12-07T13:18:00;9.87;;;5.57;;
12334;SDS011;6233;51.560;9.986;2022-12-07T13:24:09;7.73;;;5.07;;
12334;SDS011;6233;51.560;9.986;2022-12-07T13:27:13;10.63;;;5.13;;
12334;SDS011;6233;51.560;9.986;2022-12-07T13:30:19;8.50;;;5.20;;
12334;SDS011;6233;51.560;9.986;2022-12-07T13:33:22;10.57;;;5.33;;
12334;SDS011;6233;51.560;9.986;2022-12-07T13:36:26;5.40;;;4.60;;
12334;SDS011;6233;51.560;9.986;2022-12-07T13:39:44;9.90;;;5.80;;
12334;SDS011;6233;51.560;9.986;2022-12-07T13:42:47;8.30;;;5.00;;
12334;SDS011;6233;51.560;9.986;2022-12-07T13:45:55;9.77;;;5.27;;
12334;SDS011;6233;51.560;9.986;2022-12-07T13:48:59;6.67;;;5.03;;
12334;SDS011;6233;51.560;9.986;2022-12-07T13:52:13;9.73;;;5.23;;
12334;SDS011;6233;51.560;9.986;2022-12-07T13:55:19;7.20;;;5.23;;
12334;SDS011;6233;51.560;9.986;2022-12-07T13:58:21;7.37;;;5.10;;
12334;SDS011;6233;51.560;9.986;2022-12-07T14:01:24;8.57;;;5.23;;
12334;SDS011;6233;51.560;9.986;2022-12-07T14:07:28;8.03;;;5.37;;
12334;SDS011;6233;51.560;9.986;2022-12-07T14:10:40;8.33;;;5.27;;
12334;SDS011;6233;51.560;9.986;2022-12-07T14:14:01;7.70;;;5.00;;
12334;SDS011;6233;51.560;9.986;2022-12-07T14:17:12;8.33;;;5.57;;
12334;SDS011;6233;51.560;9.986;2022-12-07T14:20:35;7.83;;;4.90;;
12334;SDS011;6233;51.560;9.986;2022-12-07T14:23:38;9.40;;;5.57;;
12334;SDS011;6233;51.560;9.986;2022-12-07T14:26:41;6.53;;;5.40;;
12334;SDS011;6233;51.560;9.986;2022-12-07T14:29:43;12.40;;;5.30;;
12334;SDS011;6233;51.560;9.986;2022-12-07T14:32:45;6.63;;;4.60;;
12334;SDS011;6233;51.560;9.986;2022-12-07T14:35:49;7.53;;;4.50;;
12334;SDS011;6233;51.560;9.986;2022-12-07T14:38:56;7.87;;;4.80;;
12334;SDS011;6233;51.560;9.986;2022-12-07T14:41:59;10.03;;;4.90;;
12334;SDS011;6233;51.560;9.986;2022-12-07T14:45:00;6.90;;;4.90;;
12334;SDS011;6233;51.560;9.986;2022-12-07T14:48:03;7.50;;;5.03;;
12334;SDS011;6233;51.560;9.986;2022-12-07T14:51:25;10.80;;;5.57;;
12334;SDS011;6233;51.560;9.986;2022-12-07T14:54:47;10.17;;;5.83;;
12334;SDS011;6233;51.560;9.986;2022-12-07T14:57:48;5.73;;;4.73;;
12334;SDS011;6233;51.560;9.986;2022-12-07T15:00:50;7.83;;;4.47;;
12334;SDS011;6233;51.560;9.986;2022-12-07T15:03:52;8.77;;;5.20;;
12334;SDS011;6233;51.560;9.986;2022-12-07T15:06:57;9.07;;;5.37;;
12334;SDS011;6233;51.560;9.986;2022-12-07T15:10:04;9.40;;;5.20;;
12334;SDS011;6233;51.560;9.986;2022-12-07T15:13:07;9.67;;;6.50;;
12334;SDS011;6233;51.560;9.986;2022-12-07T15:16:28;8.17;;;5.37;;
12334;SDS011;6233;51.560;9.986;2022-12-07T15:23:14;11.73;;;6.77;;
12334;SDS011;6233;51.560;9.986;2022-12-07T15:26:16;9.33;;;5.60;;
12334;SDS011;6233;51.560;9.986;2022-12-07T15:29:18;6.20;;;5.00;;
12334;SDS011;6233;51.560;9.986;2022-12-07T15:32:24;9.67;;;5.00;;
12334;SDS011;6233;51.560;9.986;2022-12-07T15:35:25;10.07;;;5.17;;
12334;SDS011;6233;51.560;9.986;2022-12-07T15:38:27;7.80;;;5.67;;
12334;SDS011;6233;51.560;9.986;2022-12-07T15:41:51;11.23;;;6.37;;
12334;SDS011;6233;51.560;9.986;2022-12-07T15:44:52;9.30;;;6.07;;
12334;SDS011;6233;51.560;9.986;2022-12-07T15:48:07;8.83;;;5.57;;
12334;SDS011;6233;51.560;9.986;2022-12-07T15:51:29;5.73;;;4.40;;
12334;SDS011;6233;51.560;9.986;2022-12-07T15:54:31;6.77;;;4.60;;
12334;SDS011;6233;51.560;9.986;2022-12-07T15:57:34;6.93;;;5.03;;
12334;SDS011;6233;51.560;9.986;2022-12-07T16:00:38;6.43;;;4.67;;
12334;SDS011;6233;51.560;9.986;2022-12-07T16:03:40;5.63;;;4.83;;
12334;SDS011;6233;51.560;9.986;2022-12-07T16:06:41;10.60;;;5.80;;
12334;SDS011;6233;51.560;9.986;2022-12-07T16:09:44;6.80;;;5.60;;
12334;SDS011;6233;51.560;9.986;2022-12-07T16:12:46;11.80;;;5.53;;
12334;SDS011;6233;51.560;9.986;2022-12-07T16:15:48;9.40;;;5.43;;
12334;SDS011;6233;51.560;9.986;2022-12-07T16:18:50;7.63;;;5.20;;
12334;SDS011;6233;51.560;9.986;2022-12-07T16:21:51;8.53;;;5.77;;
12334;SDS011;6233;51.560;9.986;2022-12-07T16:24:53;10.03;;;6.13;;
12334;SDS011;6233;51.560;9.986;2022-12-07T16:27:55;9.00;;;5.73;;
12334;SDS011;6233;51.560;9.986;2022-12-07T16:31:07;11.90;;;6.20;;
12334;SDS011;6233;51.560;9.986;2022-12-07T16:34:11;9.40;;;5.83;;
12334;SDS011;6233;51.560;9.986;2022-12-07T16:37:12;7.60;;;6.30;;
12334;SDS011;6233;51.560;9.986;2022-12-07T16:40:14;10.63;;;6.50;;
12334;SDS011;6233;51.560;9.986;2022-12-07T16:43:16;7.60;;;6.80;;
12334;SDS011;6233;51.560;9.986;2022-12-07T16:46:17;9.77;;;6.63;;
12334;SDS011;6233;51.560;9.986;2022-12-07T16:49:19;9.17;;;7.23;;
12334;SDS011;6233;51.560;9.986;2022-12-07T16:52:21;13.40;;;7.93;;
12334;SDS011;6233;51.560;9.986;2022-12-07T16:55:22;10.10;;;7.73;;
12334;SDS011;6233;51.560;9.986;2022-12-07T16:58:24;15.80;;;7.93;;
12334;SDS011;6233;51.560;9.986;2022-12-07T17:01:26;13.20;;;8.43;;
12334;SDS011;6233;51.560;9.986;2022-12-07T17:04:30;12.30;;;8.27;;
12334;SDS011;6233;51.560;9.986;2022-12-07T17:07:32;12.30;;;7.63;;
12334;SDS011;6233;51.560;9.986;2022-12-07T17:10:35;14.23;;;8.10;;
12334;SDS011;6233;51.560;9.986;2022-12-07T17:13:39;15.33;;;6.20;;
12334;SDS011;6233;51.560;9.986;2022-12-07T17:16:59;10.27;;;5.90;;
12334;SDS011;6233;51.560;9.986;2022-12-07T17:20:01;10.97;;;5.77;;
12334;SDS011;6233;51.560;9.986;2022-12-07T17:23:03;8.53;;;5.77;;
12334;SDS011;6233;51.560;9.986;2022-12-07T17:26:06;7.17;;;5.20;;
12334;SDS011;6233;51.560;9.986;2022-12-07T17:29:10;10.20;;;6.00;;
12334;SDS011;6233;51.560;9.986;2022-12-07T17:32:14;7.43;;;5.63;;
12334;SDS011;6233;51.560;9.986;2022-12-07T17:35:15;8.93;;;5.90;;
12334;SDS011;6233;51.560;9.986;2022-12-07T17:38:17;7.70;;;6.53;;
12334;SDS011;6233;51.560;9.986;2022-12-07T17:41:26;11.10;;;6.87;;
12334;SDS011;6233;51.560;9.986;2022-12-07T17:44:47;9.50;;;6.10;;
12334;SDS011;6233;51.560;9.986;2022-12-07T17:47:48;12.67;;;7.63;;
12334;SDS011;6233;51.560;9.986;2022-12-07T17:50:50;11.03;;;7.40;;
12334;SDS011;6233;51.560;9.986;2022-12-07T17:54:11;11.90;;;8.03;;
12334;SDS011;6233;51.560;9.986;2022-12-07T17:57:13;12.50;;;8.27;;
12334;SDS011;6233;51.560;9.986;2022-12-07T18:00:14;12.87;;;8.57;;
12334;SDS011;6233;51.560;9.986;2022-12-07T18:03:16;12.63;;;7.87;;
12334;SDS011;6233;51.560;9.986;2022-12-07T18:06:18;10.00;;;7.30;;
12334;SDS011;6233;51.560;9.986;2022-12-07T18:09:20;11.17;;;8.23;;
12334;SDS011;6233;51.560;9.986;2022-12-07T18:12:22;11.43;;;8.17;;
12334;SDS011;6233;51.560;9.986;2022-12-07T18:15:24;11.60;;;8.33;;
12334;SDS011;6233;51.560;9.986;2022-12-07T18:18:26;10.40;;;8.33;;
12334;SDS011;6233;51.560;9.986;2022-12-07T18:21:28;16.27;;;8.43;;
12334;SDS011;6233;51.560;9.986;2022-12-07T18:24:31;10.50;;;8.07;;
12334;SDS011;6233;51.560;9.986;2022-12-07T18:27:37;11.33;;;8.10;;
12334;SDS011;6233;51.560;9.986;2022-12-07T18:30:39;10.87;;;8.37;;
12334;SDS011;6233;51.560;9.986;2022-12-07T18:34:05;11.80;;;8.33;;
12334;SDS011;6233;51.560;9.986;2022-12-07T18:37:11;13.17;;;8.77;;
12334;SDS011;6233;51.560;9.986;2022-12-07T18:40:13;12.93;;;9.17;;
12334;SDS011;6233;51.560;9.986;2022-12-07T18:46:49;13.43;;;9.83;;
12334;SDS011;6233;51.560;9.986;2022-12-07T18:49:50;16.03;;;10.77;;
12334;SDS011;6233;51.560;9.986;2022-12-07T18:52:52;17.63;;;11.00;;
12334;SDS011;6233;51.560;9.986;2022-12-07T18:56:13;16.17;;;10.03;;
12334;SDS011;6233;51.560;9.986;2022-12-07T19:02:51;16.13;;;10.10;;
12334;SDS011;6233;51.560;9.986;2022-12-07T19:05:54;12.27;;;9.93;;
12334;SDS011;6233;51.560;9.986;2022-12-07T19:08:57;15.27;;;9.67;;
12334;SDS011;6233;51.560;9.986;2022-12-07T19:11:59;15.83;;;9.30;;
12334;SDS011;6233;51.560;9.986;2022-12-07T19:15:04;14.70;;;9.80;;
12334;SDS011;6233;51.560;9.986;2022-12-07T19:18:07;12.07;;;8.97;;
12334;SDS011;6233;51.560;9.986;2022-12-07T19:21:09;12.17;;;8.97;;
12334;SDS011;6233;51.560;9.986;2022-12-07T19:24:11;10.60;;;8.60;;
12334;SDS011;6233;51.560;9.986;2022-12-07T19:27:16;13.53;;;8.50;;
12334;SDS011;6233;51.560;9.986;2022-12-07T19:30:18;15.40;;;9.30;;
12334;SDS011;6233;51.560;9.986;2022-12-07T19:33:21;12.83;;;8.80;;
12334;SDS011;6233;51.560;9.986;2022-12-07T19:36:23;17.20;;;9.70;;
12334;SDS011;6233;51.560;9.986;2022-12-07T19:39:25;12.90;;;9.17;;
12334;SDS011;6233;51.560;9.986;2022-12-07T19:42:27;14.73;;;9.70;;
12334;SDS011;6233;51.560;9.986;2022-12-07T19:45:35;13.47;;;9.70;;
12334;SDS011;6233;51.560;9.986;2022-12-07T19:48:37;14.07;;;10.17;;
12334;SDS011;6233;51.560;9.986;2022-12-07T19:51:38;17.50;;;11.93;;
12334;SDS011;6233;51.560;9.986;2022-12-07T19:54:40;18.57;;;11.03;;
12334;SDS011;6233;51.560;9.986;2022-12-07T19:57:42;14.33;;;10.83;;
12334;SDS011;6233;51.560;9.986;2022-12-07T20:00:43;13.17;;;9.53;;
12334;SDS011;6233;51.560;9.986;2022-12-07T20:03:45;15.47;;;10.77;;
12334;SDS011;6233;51.560;9.986;2022-12-07T20:06:47;14.30;;;10.00;;
12334;SDS011;6233;51.560;9.986;2022-12-07T20:09:51;14.07;;;10.10;;
12334;SDS011;6233;51.560;9.986;2022-12-07T20:12:52;15.67;;;10.63;;
12334;SDS011;6233;51.560;9.986;2022-12-07T20:16:13;18.27;;;10.83;;
12334;SDS011;6233;51.560;9.986;2022-12-07T20:19:20;14.60;;;10.47;;
12334;SDS011;6233;51.560;9.986;2022-12-07T20:22:22;12.20;;;9.97;;
12334;SDS011;6233;51.560;9.986;2022-12-07T20:25:23;16.33;;;10.00;;
12334;SDS011;6233;51.560;9.986;2022-12-07T20:28:25;14.47;;;10.33;;
12334;SDS011;6233;51.560;9.986;2022-12-07T20:31:27;17.00;;;10.50;;
12334;SDS011;6233;51.560;9.986;2022-12-07T20:34:29;15.97;;;10.93;;
12334;SDS011;6233;51.560;9.986;2022-12-07T20:37:31;14.23;;;9.00;;